createdAt,value
2023-02-08T00:01:23.846Z,1.75
2023-02-08T00:03:52.371Z,1.74
2023-02-08T00:06:20.228Z,1.75
2023-02-08T00:08:47.814Z,1.75
2023-02-08T00:11:15.363Z,1.74
2023-02-08T00:13:43.009Z,1.72
2023-02-08T00:16:12.693Z,1.69
2023-02-08T00:18:40.805Z,1.69
2023-02-08T00:21:15.303Z,1.68
2023-02-08T00:23:43.718Z,1.66
2023-02-08T00:26:11.253Z,1.62
2023-02-08T00:28:39.389Z,1.62
2023-02-08T00:31:07.240Z,1.62
2023-02-08T00:33:35.458Z,1.63
2023-02-08T00:36:07.278Z,1.62
2023-02-08T00:38:35.439Z,1.61
2023-02-08T00:41:03.420Z,1.62
2023-02-08T00:43:31.560Z,1.61
2023-02-08T00:46:00.363Z,1.59
2023-02-08T00:48:28.554Z,1.55
2023-02-08T00:51:09.611Z,1.50
2023-02-08T00:53:40.188Z,1.51
2023-02-08T00:56:09.734Z,1.50
2023-02-08T00:58:37.987Z,1.45
2023-02-08T01:01:07.072Z,1.43
2023-02-08T01:03:37.052Z,1.39
2023-02-08T01:06:10.275Z,1.42
2023-02-08T01:08:37.929Z,1.41
2023-02-08T01:11:07.559Z,1.40
2023-02-08T01:13:36.336Z,1.37
2023-02-08T01:16:18.780Z,1.31
2023-02-08T01:18:49.368Z,1.32
2023-02-08T01:21:21.145Z,1.32
2023-02-08T01:23:49.291Z,1.31
2023-02-08T01:26:19.796Z,1.30
2023-02-08T01:28:48.531Z,1.29
2023-02-08T01:31:23.771Z,1.30
2023-02-08T01:33:51.936Z,1.30
2023-02-08T01:36:19.642Z,1.30
2023-02-08T01:38:47.587Z,1.29
2023-02-08T01:41:22.336Z,1.26
2023-02-08T01:45:05.658Z,1.12
2023-02-08T01:47:33.637Z,1.17
2023-02-08T01:50:01.405Z,1.15
2023-02-08T01:52:30.060Z,1.17
2023-02-08T01:55:19.780Z,1.07
2023-02-08T01:57:52.525Z,1.10
2023-02-08T02:00:24.210Z,1.06
2023-02-08T02:02:55.402Z,1.04
2023-02-08T02:05:29.609Z,1.03
2023-02-08T02:08:00.212Z,1.04
2023-02-08T02:10:36.978Z,1.00
2023-02-08T02:13:17.032Z,0.95
2023-02-08T02:15:45.931Z,0.97
2023-02-08T02:18:26.706Z,0.95
2023-02-08T02:21:39.990Z,0.84
2023-02-08T02:24:29.748Z,0.84
2023-02-08T02:27:22.901Z,0.80
2023-02-08T02:30:33.768Z,0.75
2023-02-08T02:33:07.283Z,0.80
2023-02-08T02:36:14.545Z,0.69
2023-02-08T02:39:23.266Z,0.70
2023-02-08T02:42:36.485Z,0.73
2023-02-08T02:45:09.915Z,0.71
2023-02-08T02:48:10.252Z,0.66
2023-02-08T02:50:59.029Z,0.68
2023-02-08T02:54:08.169Z,0.63
2023-02-08T02:56:42.510Z,0.74
2023-02-08T02:59:12.449Z,0.72
2023-02-08T03:01:42.401Z,0.71
2023-02-08T03:04:32.511Z,0.62
2023-02-08T03:07:19.785Z,0.63
2023-02-08T03:10:05.633Z,0.65
2023-02-08T03:13:11.956Z,0.58
2023-02-08T03:16:01.327Z,0.56
2023-02-08T03:19:26.906Z,0.50
2023-02-08T03:22:17.520Z,0.47
2023-02-08T03:25:12.270Z,0.46
2023-02-08T03:28:00.166Z,0.42
2023-02-08T03:30:36.400Z,0.53
2023-02-08T03:33:16.868Z,0.47
2023-02-08T03:35:57.281Z,0.47
2023-02-08T03:38:43.637Z,0.42
2023-02-08T03:41:20.397Z,0.47
2023-02-08T03:44:09.616Z,0.41
2023-02-08T03:46:44.303Z,0.43
2023-02-08T03:49:18.652Z,0.41
2023-02-08T03:51:46.751Z,0.42
2023-02-08T03:54:24.037Z,0.36
2023-02-08T03:57:18.416Z,0.31
2023-02-08T03:59:59.912Z,0.31
2023-02-08T04:02:33.500Z,0.32
2023-02-08T04:05:01.921Z,0.30
2023-02-08T04:07:29.427Z,0.29
2023-02-08T04:09:57.587Z,0.30
2023-02-08T04:12:25.102Z,0.30
2023-02-08T04:14:52.620Z,0.32
2023-02-08T04:17:20.144Z,0.31
2023-02-08T04:19:47.674Z,0.30
2023-02-08T04:22:15.193Z,0.26
2023-02-08T04:24:42.727Z,0.27
2023-02-08T04:27:10.278Z,0.27
2023-02-08T04:29:37.872Z,0.26
2023-02-08T04:32:08.194Z,0.22
2023-02-08T04:34:35.705Z,0.22
2023-02-08T04:37:03.271Z,0.21
2023-02-08T04:39:30.822Z,0.19
2023-02-08T04:41:58.383Z,0.19
2023-02-08T04:44:27.163Z,0.17
2023-02-08T04:46:55.348Z,0.14
2023-02-08T04:49:23.002Z,0.13
2023-02-08T04:51:50.548Z,0.12
2023-02-08T04:54:18.015Z,0.10
2023-02-08T04:56:45.526Z,0.09
2023-02-08T04:59:13.095Z,0.10
2023-02-08T05:01:40.677Z,0.08
2023-02-08T05:04:08.243Z,0.05
2023-02-08T05:06:36.160Z,0.02
2023-02-08T05:09:06.795Z,0.03
2023-02-08T05:11:34.316Z,0.02
2023-02-08T05:14:02.416Z,0.03
2023-02-08T05:16:30.336Z,0.01
2023-02-08T05:18:57.978Z,-0.04
2023-02-08T05:21:25.509Z,-0.05
2023-02-08T05:23:53.279Z,-0.05
2023-02-08T05:26:21.102Z,-0.07
2023-02-08T05:28:49.024Z,-0.08
2023-02-08T05:31:25.452Z,-0.13
2023-02-08T05:33:53.764Z,-0.13
2023-02-08T05:36:23.154Z,-0.08
2023-02-08T05:38:50.780Z,-0.11
2023-02-08T05:41:18.267Z,-0.15
2023-02-08T05:43:46.059Z,-0.16
2023-02-08T05:46:14.008Z,-0.14
2023-02-08T05:48:41.608Z,-0.16
2023-02-08T05:51:09.665Z,-0.20
2023-02-08T05:53:37.649Z,-0.21
2023-02-08T05:56:05.422Z,-0.20
2023-02-08T05:58:34.130Z,-0.22
2023-02-08T06:01:02.302Z,-0.27
2023-02-08T06:03:29.940Z,-0.31
2023-02-08T06:06:01.282Z,-0.30
2023-02-08T06:08:28.976Z,-0.30
2023-02-08T06:10:56.525Z,-0.34
2023-02-08T06:13:24.227Z,-0.31
2023-02-08T06:15:51.809Z,-0.30
2023-02-08T06:18:19.329Z,-0.28
2023-02-08T06:20:46.801Z,-0.29
2023-02-08T06:23:14.348Z,-0.29
2023-02-08T06:25:41.910Z,-0.31
2023-02-08T06:28:10.750Z,-0.33
2023-02-08T06:30:38.845Z,-0.32
2023-02-08T06:33:06.707Z,-0.34
2023-02-08T06:35:34.258Z,-0.35
2023-02-08T06:38:01.854Z,-0.33
2023-02-08T06:40:29.348Z,-0.34
2023-02-08T06:42:56.897Z,-0.33
2023-02-08T06:45:25.074Z,-0.32
2023-02-08T06:47:52.681Z,-0.31
2023-02-08T06:50:21.658Z,-0.31
2023-02-08T06:52:50.107Z,-0.30
2023-02-08T06:55:17.852Z,-0.31
2023-02-08T06:57:45.369Z,-0.29
2023-02-08T07:00:13.626Z,-0.29
2023-02-08T07:02:41.181Z,-0.30
2023-02-08T07:05:08.905Z,-0.29
2023-02-08T07:07:36.414Z,-0.26
2023-02-08T07:10:04.487Z,-0.26
2023-02-08T07:12:37.202Z,-0.26
2023-02-08T07:15:05.079Z,-0.24
2023-02-08T07:17:32.642Z,-0.20
2023-02-08T07:20:00.209Z,-0.18
2023-02-08T07:22:27.805Z,-0.18
2023-02-08T07:24:55.329Z,-0.15
2023-02-08T07:27:25.036Z,-0.11
2023-02-08T07:29:53.538Z,-0.09
2023-02-08T07:32:21.089Z,-0.08
2023-02-08T07:34:48.750Z,-0.06
2023-02-08T07:37:16.355Z,-0.04
2023-02-08T07:39:43.925Z,0.02
2023-02-08T07:42:11.535Z,0.06
2023-02-08T07:44:52.615Z,0.10
2023-02-08T07:47:20.368Z,0.16
2023-02-08T07:49:47.874Z,0.19
2023-02-08T07:52:15.379Z,0.25
2023-02-08T07:54:42.886Z,0.31
2023-02-08T07:57:10.443Z,0.35
2023-02-08T07:59:37.903Z,0.40
2023-02-08T08:02:05.435Z,0.43
2023-02-08T08:04:32.984Z,0.48
2023-02-08T08:07:00.531Z,0.50
2023-02-08T08:09:28.072Z,0.55
2023-02-08T08:11:55.581Z,0.57
2023-02-08T08:14:23.053Z,0.62
2023-02-08T08:16:50.566Z,0.66
2023-02-08T08:19:18.056Z,0.73
2023-02-08T08:21:45.586Z,0.75
2023-02-08T08:24:13.092Z,0.80
2023-02-08T08:26:40.598Z,0.84
2023-02-08T08:29:08.129Z,0.87
2023-02-08T08:31:36.746Z,0.91
2023-02-08T08:34:04.321Z,0.95
2023-02-08T08:36:32.070Z,0.96
2023-02-08T08:38:59.618Z,1.02
2023-02-08T08:41:28.181Z,1.06
2023-02-08T08:43:55.701Z,1.12
2023-02-08T08:46:23.321Z,1.15
2023-02-08T08:48:51.977Z,1.17
2023-02-08T08:51:20.008Z,1.23
2023-02-08T08:53:47.522Z,1.22
2023-02-08T08:56:15.350Z,1.29
2023-02-08T08:58:43.490Z,1.34
2023-02-08T09:01:12.000Z,1.37
2023-02-08T09:03:39.487Z,1.42
2023-02-08T09:06:07.062Z,1.48
2023-02-08T09:08:34.618Z,1.54
2023-02-08T09:11:08.019Z,1.56
2023-02-08T09:13:36.086Z,1.60
2023-02-08T09:16:15.235Z,1.61
2023-02-08T09:18:43.389Z,1.69
2023-02-08T09:21:14.915Z,1.75
2023-02-08T09:23:43.368Z,1.81
2023-02-08T09:26:13.894Z,1.86
2023-02-08T09:28:41.861Z,1.93
2023-02-08T09:31:25.020Z,1.92
2023-02-08T09:33:56.504Z,2.00
2023-02-08T09:36:28.513Z,2.07
2023-02-08T09:39:01.008Z,2.11
2023-02-08T09:41:47.317Z,2.12
2023-02-08T09:44:39.014Z,2.16
2023-02-08T09:47:24.654Z,2.21
2023-02-08T09:50:02.070Z,2.27
2023-02-08T09:52:54.080Z,2.29
2023-02-08T09:55:47.998Z,2.34
2023-02-08T09:58:34.214Z,2.40
2023-02-08T10:01:05.942Z,2.50
2023-02-08T10:03:38.905Z,2.53
2023-02-08T10:06:10.276Z,2.59
2023-02-08T10:08:39.407Z,2.62
2023-02-08T10:11:47.072Z,2.62
2023-02-08T10:14:48.524Z,2.65
2023-02-08T10:18:31.825Z,2.69
2023-02-08T10:21:18.528Z,2.82
2023-02-08T10:24:32.757Z,2.86
2023-02-08T10:27:15.868Z,2.95
2023-02-08T10:30:33.551Z,2.96
2023-02-08T10:33:17.414Z,3.09
2023-02-08T10:35:50.751Z,3.14
2023-02-08T10:38:45.511Z,3.19
2023-02-08T10:41:25.827Z,3.21
2023-02-08T10:44:12.779Z,3.26
2023-02-08T10:46:52.057Z,3.33
2023-02-08T10:49:53.663Z,3.30
2023-02-08T10:52:21.197Z,3.37
2023-02-08T10:54:51.897Z,3.42
2023-02-08T10:57:28.316Z,3.48
2023-02-08T11:00:06.741Z,3.52
2023-02-08T11:02:40.631Z,3.57
2023-02-08T11:05:20.016Z,3.63
2023-02-08T11:07:47.610Z,3.69
2023-02-08T11:10:24.115Z,3.72
2023-02-08T11:13:14.668Z,3.72
2023-02-08T11:16:01.142Z,3.78
2023-02-08T11:18:53.993Z,3.87
2023-02-08T11:21:29.736Z,3.92
2023-02-08T11:23:58.153Z,3.96
2023-02-08T11:26:39.648Z,4.00
2023-02-08T11:29:26.429Z,4.02
2023-02-08T11:32:03.992Z,4.09
2023-02-08T11:34:34.956Z,4.18
2023-02-08T11:37:25.804Z,4.20
2023-02-08T11:39:56.878Z,4.30
2023-02-08T11:42:36.980Z,4.33
2023-02-08T11:45:05.657Z,4.40
2023-02-08T11:47:35.671Z,4.46
2023-02-08T11:50:08.462Z,4.45
2023-02-08T11:52:41.925Z,4.52
2023-02-08T11:55:18.348Z,4.55
2023-02-08T11:57:59.786Z,4.59
2023-02-08T12:00:37.510Z,4.65
2023-02-08T12:03:24.778Z,4.69
2023-02-08T12:06:25.889Z,4.75
2023-02-08T12:09:53.694Z,4.80
2023-02-08T12:12:26.638Z,4.91
2023-02-08T12:15:19.276Z,4.95
2023-02-08T12:18:29.315Z,5.01
2023-02-08T12:21:23.178Z,5.10
2023-02-08T12:23:56.418Z,5.19
2023-02-08T12:27:10.476Z,5.23
2023-02-08T12:30:22.510Z,5.30
2023-02-08T12:33:32.997Z,5.42
2023-02-08T12:36:18.767Z,5.51
2023-02-08T12:39:39.769Z,5.61
2023-02-08T12:42:51.534Z,5.68
2023-02-08T12:46:22.298Z,5.78
2023-02-08T12:49:11.006Z,5.90
2023-02-08T12:52:20.849Z,5.99
2023-02-08T12:55:01.456Z,6.11
2023-02-08T12:57:32.455Z,6.21
2023-02-08T13:00:16.278Z,6.32
2023-02-08T13:03:01.135Z,6.38
2023-02-08T13:05:38.436Z,6.45
2023-02-08T13:08:52.925Z,6.50
2023-02-08T13:11:31.088Z,6.66
2023-02-08T13:14:42.545Z,6.68
2023-02-08T13:17:24.473Z,6.83
2023-02-08T13:20:23.233Z,6.89
2023-02-08T13:22:53.141Z,6.98
2023-02-08T13:25:34.615Z,7.03
2023-02-08T13:28:11.242Z,7.15
2023-02-08T13:30:40.307Z,7.19
2023-02-08T13:33:23.759Z,7.24
2023-02-08T13:35:53.607Z,7.32
2023-02-08T13:38:34.890Z,7.35
2023-02-08T13:41:23.994Z,7.40
2023-02-08T13:44:09.183Z,7.48
2023-02-08T13:46:45.727Z,7.55
2023-02-08T13:49:43.709Z,7.59
2023-02-08T13:52:46.514Z,7.71
2023-02-08T13:55:30.642Z,7.72
2023-02-08T13:58:03.605Z,7.75
2023-02-08T14:00:36.271Z,7.79
2023-02-08T14:03:23.572Z,7.81
2023-02-08T14:06:26.168Z,7.84
2023-02-08T14:09:30.035Z,7.90
2023-02-08T14:12:05.586Z,7.98
2023-02-08T14:14:40.312Z,8.03
2023-02-08T14:17:23.926Z,7.96
2023-02-08T14:20:02.317Z,7.95
2023-02-08T14:22:39.635Z,8.01
2023-02-08T14:25:19.822Z,8.04
2023-02-08T14:28:02.323Z,8.00
2023-02-08T14:30:38.220Z,8.08
2023-02-08T14:33:08.259Z,8.11
2023-02-08T14:35:42.446Z,8.12
2023-02-08T14:38:19.423Z,8.15
2023-02-08T14:40:52.857Z,8.19
2023-02-08T14:43:20.243Z,8.25
2023-02-08T14:45:53.299Z,8.27
2023-02-08T14:48:48.721Z,8.29
2023-02-08T14:51:24.317Z,8.26
2023-02-08T14:53:57.034Z,8.26
2023-02-08T14:56:26.444Z,8.29
2023-02-08T14:59:18.040Z,8.31
2023-02-08T15:01:59.473Z,8.34
2023-02-08T15:04:27.587Z,8.35
2023-02-08T15:07:25.547Z,8.26
2023-02-08T15:09:53.772Z,8.29
2023-02-08T15:12:30.137Z,8.25
2023-02-08T15:15:00.931Z,8.24
2023-02-08T15:17:43.783Z,8.24
2023-02-08T15:20:25.976Z,8.24
2023-02-08T15:23:22.413Z,8.17
2023-02-08T15:26:19.001Z,8.16
2023-02-08T15:28:46.509Z,8.09
2023-02-08T15:31:20.731Z,8.05
2023-02-08T15:33:49.099Z,7.99
2023-02-08T15:36:36.152Z,7.92
2023-02-08T15:39:33.687Z,7.82
2023-02-08T15:42:01.982Z,7.78
2023-02-08T15:44:33.959Z,7.71
2023-02-08T15:47:05.216Z,7.67
2023-02-08T15:49:39.865Z,7.57
2023-02-08T15:52:12.434Z,7.48
2023-02-08T15:54:39.932Z,7.36
2023-02-08T15:57:21.288Z,7.24
2023-02-08T15:59:49.277Z,7.11
2023-02-08T16:02:33.928Z,6.94
2023-02-08T16:05:11.377Z,6.84
2023-02-08T16:07:43.592Z,6.74
2023-02-08T16:10:33.867Z,6.59
2023-02-08T16:13:14.188Z,6.50
2023-02-08T16:15:46.058Z,6.39
2023-02-08T16:18:38.705Z,6.23
2023-02-08T16:21:44.057Z,6.14
2023-02-08T16:24:14.211Z,6.06
2023-02-08T16:26:49.478Z,5.98
2023-02-08T16:29:37.520Z,5.89
2023-02-08T16:32:31.642Z,5.75
2023-02-08T16:35:01.366Z,5.73
2023-02-08T16:37:32.538Z,5.64
2023-02-08T16:40:36.373Z,5.54
2023-02-08T16:43:27.849Z,5.45
2023-02-08T16:46:23.681Z,5.36
2023-02-08T16:48:57.014Z,5.33
2023-02-08T16:51:32.299Z,5.24
2023-02-08T16:54:11.315Z,5.19
2023-02-08T16:56:39.902Z,5.13
2023-02-08T16:59:08.935Z,5.10
2023-02-08T17:01:38.324Z,5.07
2023-02-08T17:04:06.157Z,4.98
2023-02-08T17:06:36.923Z,4.96
2023-02-08T17:09:08.066Z,4.90
2023-02-08T17:11:36.462Z,4.87
2023-02-08T17:14:05.076Z,4.85
2023-02-08T17:16:34.486Z,4.81
2023-02-08T17:19:03.334Z,4.74
2023-02-08T17:21:31.280Z,4.70
2023-02-08T17:23:58.903Z,4.66
2023-02-08T17:26:41.836Z,4.61
2023-02-08T17:29:12.598Z,4.58
2023-02-08T17:31:40.980Z,4.56
2023-02-08T17:34:08.551Z,4.52
2023-02-08T17:36:37.122Z,4.50
2023-02-08T17:39:06.107Z,4.45
2023-02-08T17:41:33.755Z,4.40
2023-02-08T17:44:01.405Z,4.33
2023-02-08T17:46:33.126Z,4.30
2023-02-08T17:49:01.586Z,4.26
2023-02-08T17:51:29.857Z,4.25
2023-02-08T17:53:57.484Z,4.23
2023-02-08T17:56:28.549Z,4.20
2023-02-08T17:58:56.417Z,4.20
2023-02-08T18:01:26.837Z,4.20
2023-02-08T18:03:55.076Z,4.18
2023-02-08T18:06:24.904Z,4.15
2023-02-08T18:08:54.132Z,4.11
2023-02-08T18:11:23.340Z,4.10
2023-02-08T18:13:53.711Z,4.08
2023-02-08T18:16:26.794Z,4.05
2023-02-08T18:18:56.887Z,4.01
2023-02-08T18:21:25.891Z,3.98
2023-02-08T18:23:55.226Z,3.93
2023-02-08T18:26:24.545Z,3.90
2023-02-08T18:28:52.870Z,3.86
2023-02-08T18:31:22.036Z,3.90
2023-02-08T18:33:51.186Z,3.88
2023-02-08T18:36:20.814Z,3.88
2023-02-08T18:38:51.263Z,3.89
2023-02-08T18:41:29.790Z,3.88
2023-02-08T18:43:58.859Z,3.89
2023-02-08T18:46:28.413Z,3.88
2023-02-08T18:48:56.541Z,3.89
2023-02-08T18:51:26.506Z,3.87
2023-02-08T18:53:55.331Z,3.86
2023-02-08T18:56:25.953Z,3.82
2023-02-08T18:58:55.260Z,3.84
2023-02-08T19:01:24.529Z,3.81
2023-02-08T19:03:54.047Z,3.80
2023-02-08T19:06:25.395Z,3.81
2023-02-08T19:08:56.266Z,3.79
2023-02-08T19:11:28.413Z,3.73
2023-02-08T19:14:00.409Z,3.71
2023-02-08T19:16:30.687Z,3.69
2023-02-08T19:19:00.952Z,3.68
2023-02-08T19:21:29.825Z,3.67
2023-02-08T19:24:00.701Z,3.66
2023-02-08T19:26:32.603Z,3.62
2023-02-08T19:29:03.266Z,3.58
2023-02-08T19:31:31.152Z,3.58
2023-02-08T19:34:02.102Z,3.59
2023-02-08T19:36:44.142Z,3.57
2023-02-08T19:39:15.930Z,3.58
2023-02-08T19:41:45.415Z,3.55
2023-02-08T19:44:16.863Z,3.53
2023-02-08T19:46:53.775Z,3.49
2023-02-08T19:49:25.755Z,3.48
2023-02-08T19:51:53.983Z,3.48
2023-02-08T19:54:22.090Z,3.46
2023-02-08T19:56:54.695Z,3.44
2023-02-08T19:59:28.428Z,3.43
2023-02-08T20:01:56.299Z,3.42
2023-02-08T20:04:24.260Z,3.40
2023-02-08T20:06:53.949Z,3.38
2023-02-08T20:09:21.624Z,3.37
2023-02-08T20:11:57.317Z,3.33
2023-02-08T20:14:32.765Z,3.32
2023-02-08T20:17:02.178Z,3.34
2023-02-08T20:19:30.198Z,3.31
2023-02-08T20:21:57.737Z,3.30
2023-02-08T20:24:25.315Z,3.29
2023-02-08T20:26:52.836Z,3.28
2023-02-08T20:29:20.400Z,3.27
2023-02-08T20:31:51.777Z,3.28
2023-02-08T20:34:19.376Z,3.25
2023-02-08T20:37:04.539Z,3.23
2023-02-08T20:39:36.118Z,3.23
2023-02-08T20:42:04.659Z,3.22
2023-02-08T20:44:32.143Z,3.17
2023-02-08T20:46:59.861Z,3.18
2023-02-08T20:49:27.836Z,3.16
2023-02-08T20:51:55.562Z,3.17
2023-02-08T20:54:26.173Z,3.14
2023-02-08T20:56:54.432Z,3.10
2023-02-08T20:59:22.899Z,3.05
2023-02-08T21:01:50.793Z,3.00
2023-02-08T21:04:20.184Z,2.96
2023-02-08T21:06:47.745Z,2.97
2023-02-08T21:09:17.966Z,2.98
2023-02-08T21:11:47.426Z,3.00
2023-02-08T21:14:20.655Z,2.99
2023-02-08T21:16:51.913Z,3.01
2023-02-08T21:19:20.646Z,2.99
2023-02-08T21:21:54.647Z,2.96
2023-02-08T21:24:23.850Z,2.94
2023-02-08T21:26:53.417Z,2.92
2023-02-08T21:29:21.706Z,2.90
2023-02-08T21:31:54.343Z,2.87
2023-02-08T21:34:22.294Z,2.84
2023-02-08T21:36:49.862Z,2.81
2023-02-08T21:39:17.613Z,2.79
2023-02-08T21:41:45.762Z,2.76
2023-02-08T21:44:13.389Z,2.71
2023-02-08T21:46:41.066Z,2.70
2023-02-08T21:49:28.464Z,2.66
2023-02-08T21:52:14.563Z,2.58
2023-02-08T21:54:42.602Z,2.53
2023-02-08T21:57:27.296Z,2.47
2023-02-08T21:59:58.575Z,2.46
2023-02-08T22:02:29.506Z,2.44
2023-02-08T22:05:19.721Z,2.42
2023-02-08T22:07:54.363Z,2.39
2023-02-08T22:10:27.114Z,2.33
2023-02-08T22:12:55.792Z,2.27
2023-02-08T22:15:27.737Z,2.24
2023-02-08T22:18:00.647Z,2.24
2023-02-08T22:20:29.558Z,2.25
2023-02-08T22:22:57.071Z,2.22
2023-02-08T22:25:24.866Z,2.12
2023-02-08T22:27:52.463Z,2.07
2023-02-08T22:30:20.477Z,2.09
2023-02-08T22:32:49.048Z,2.06
2023-02-08T22:35:18.154Z,2.05
2023-02-08T22:37:45.908Z,2.06
2023-02-08T22:40:13.456Z,2.06
2023-02-08T22:42:41.910Z,2.04
2023-02-08T22:45:10.702Z,1.99
2023-02-08T22:47:38.886Z,1.98
2023-02-08T22:50:08.024Z,1.99
2023-02-08T22:52:35.759Z,1.99
2023-02-08T22:55:04.582Z,1.99
2023-02-08T22:57:34.258Z,1.99
2023-02-08T23:00:02.396Z,1.99
2023-02-08T23:02:30.107Z,2.00
2023-02-08T23:04:57.598Z,2.01
2023-02-08T23:07:25.179Z,1.96
2023-02-08T23:09:52.701Z,1.94
2023-02-08T23:12:20.586Z,1.91
2023-02-08T23:14:49.661Z,1.92
2023-02-08T23:17:17.212Z,1.88
2023-02-08T23:19:44.743Z,1.85
2023-02-08T23:22:12.373Z,1.82
2023-02-08T23:24:39.951Z,1.79
2023-02-08T23:27:07.451Z,1.73
2023-02-08T23:29:35.051Z,1.70
2023-02-08T23:32:02.614Z,1.68
2023-02-08T23:34:30.199Z,1.67
2023-02-08T23:36:57.663Z,1.66
2023-02-08T23:39:25.186Z,1.60
2023-02-08T23:41:56.102Z,1.55
2023-02-08T23:44:25.053Z,1.51
2023-02-08T23:46:52.665Z,1.48
2023-02-08T23:49:20.226Z,1.45
2023-02-08T23:51:47.714Z,1.44
2023-02-08T23:54:15.271Z,1.43
2023-02-08T23:56:42.852Z,1.42
2023-02-08T23:59:11.216Z,1.39
